Hovedside
METAR-TAF:

METAR-TAF

Lufthavner :

Oslo lufthavn (Gardermoen)

Oslo, Norge

breddegrad: 60-12N, lengdegrad: 011-05E, høyde over havet: 208 m

Gjeldene værobservasjon

Denne rapporten ble laget for 28 minutter siden, klokken 12:50 UTC
Vind 7 kt fra Sør, skiftende mellom Sørøst og Sør-sørvest
Temperatur 27°C
Luftfuktighet 32%
Trykk 1016 hPa
Sikt 10 km eller mer
ingen skyer under 1500 m og ingen bygeskyer

METAR: ENGM 241250Z 18007KT 140V200 CAVOK 27/09 Q1016 NOSIG

Tid: 15:18 (13:18 UTC)

Varsel

Varsel gyldig fra 24. klokken 12 UTC til 25. klokken 12 UTC
Vind 10 kt fra Sør-sørøst
Sikt 10 km eller mer
ingen skyer under 1500 m og ingen bygeskyer
Blir
fra 24. klokken 19 UTC til 24. klokken 21 UTC
Vind 3 kt fra skiftende retning

TAF: ENGM 2412/2512 16010KT CAVOK BECMG 2419/2421 VRB03KT

Værobservasjoner og værvarsel for over 4000 flyplasser (METAR- og TAF-rapporter).

Tilgjengelige stasjoner er representert av de røde og gule prikkene på kartet.

Hold musepekeren over prikken for å se navnet på stasjonen.

Klikk så for å se værobservasjoner og -varsler.

For å forandre kartet kan du klikke på den grønne knappen med svart kryss for å zoome inn, på den grønne knappen med strek for å zoome ut, eller på de grønne pilene for å se tilstøtende kart.


METAR-TAF: